Ulety, Russia
Current Conditions -  °F | °C
As of 4:00 PM on Friday 19 Dec 2014 (Local Time) from UIAA Reporting Station
Scattered Clouds Scattered Clouds  
Wind Chill:   Ceiling: Unl
Heat Index: 14°   Visibility: 6mi
Dew Point:   Wind: 7mph
Humidity: 53%   Direction: 290°WNW
Pressure: 30.09"   Gusts: NA
Location:  51.37°N, 112.48°E
Report Text: UIAA 190700Z 29003MPS 9999 FEW050 SCT200 M10/M18 Q1019 NOSIGRMK QFE705 29CLRD70
Loading
Personal Weather Stations






























Interactive Weather Map New forecast layout! Learn more

10-Day Weather Forecast

Advertisements
Track Severe Weather on mobile